Depesza METAR lotniska Warszawa-Okęcie

METAR = EPWA 222200Z 06015G26KT 9999 BKN009 07/05 Q1010 NOSIG

STACJA......... EPWA - Warszawa-Okęcie (WAW)
POMIAR......... Thu Oct 23, 00:00 CEST
TERAZ.......... Thu Oct 23, 00:19 CEST
CZAS........... 19 min temu
WIATR.......... wschodni północno-wschodni (ENE) z prędkością 28 km/h, w porywach do 48 km/h
WIDZIALNOŚĆ.. powyżej 10 kilometrów
CHMURY......... zachmurzenie średnie (5/8-7/8)
TEMPERATURA.... 7°C
T.PUNKTU ROSY.. 5°C
WILGOTNOŚĆ... 87%
T.ODCZUWALNA... 3°C
CIŚNIENIE..... 1010 hPa
PROGNOZA....... bez nagłych zmian w ciągu 2h

Depesza METAR lotniska Kraków-Balice

METAR = EPKK 222200Z 23007KT 4000 -RA BR FEW003 SCT008 BKN023 06/06 Q1004

STACJA......... EPKK - Kraków-Balice (KRK)
POMIAR......... Thu Oct 23, 00:00 CEST
TERAZ.......... Thu Oct 23, 00:19 CEST
CZAS........... 19 min temu
WIATR.......... południowo-zachodni (SW) z prędkością 13 km/h
WIDZIALNOŚĆ.. 4000 metrów
WARUNKI........ słaby: deszcz  & zamglenie 
CHMURY......... zachmurzenie średnie (5/8-7/8)
TEMPERATURA.... 6°C
T.PUNKTU ROSY.. 6°C
WILGOTNOŚĆ... 100%
T.ODCZUWALNA... 3°C
CIŚNIENIE..... 1004 hPa

Depesza METAR lotniska Łódź-Lublinek

METAR = EPLL 222200Z 05011KT 9000 OVC009 10/08 Q1007

STACJA......... EPLL - Łódź-Lublinek (LCJ)
POMIAR......... Thu Oct 23, 00:00 CEST
TERAZ.......... Thu Oct 23, 00:19 CEST
CZAS........... 19 min temu
WIATR.......... północno-wschodni (NE) z prędkością 20 km/h
WIDZIALNOŚĆ.. 9000 metrów
CHMURY......... zachmurzenie całkowite (8/8)
TEMPERATURA.... 10°C
T.PUNKTU ROSY.. 8°C
WILGOTNOŚĆ... 88%
T.ODCZUWALNA... 7°C
CIŚNIENIE..... 1007 hPa

Depesza METAR lotniska Wrocław-Strachowice

METAR = EPWR 222200Z 35009KT 8000 RA BKN004 10/09 Q1006

STACJA......... EPWR - Wrocław-Strachowice (WRO)
POMIAR......... Thu Oct 23, 00:00 CEST
TERAZ.......... Thu Oct 23, 00:19 CEST
CZAS........... 19 min temu
WIATR.......... północny (N) z prędkością 17 km/h
WIDZIALNOŚĆ.. 8000 metrów
WARUNKI........ deszcz 
CHMURY......... zachmurzenie średnie (5/8-7/8)
TEMPERATURA.... 10°C
T.PUNKTU ROSY.. 9°C
WILGOTNOŚĆ... 94%
T.ODCZUWALNA... 8°C
CIŚNIENIE..... 1006 hPa

Depesza METAR lotniska Katowice-Pyrzowice

METAR = EPKT 222200Z 26007KT 6000 -RA SCT002 BKN003 06/06 Q1004 RERA

STACJA......... EPKT - Katowice-Pyrzowice (KTW)
POMIAR......... Thu Oct 23, 00:00 CEST
TERAZ.......... Thu Oct 23, 00:19 CEST
CZAS........... 19 min temu
WIATR.......... zachodni (W) z prędkością 13 km/h
WIDZIALNOŚĆ.. 6000 metrów
WARUNKI........ słaby: deszcz 
CHMURY......... zachmurzenie średnie (5/8-7/8)
TEMPERATURA.... 6°C
T.PUNKTU ROSY.. 6°C
WILGOTNOŚĆ... 100%
T.ODCZUWALNA... 3°C
CIŚNIENIE..... 1004 hPa
WCZEŚNIEJ..... obserwowane były zjawiska: deszcz

Depesza METAR lotniska Gdańsk

METAR = EPGD 222200Z 09011KT 9999 OVC003 05/05 Q1015

STACJA......... EPGD - Gdańsk im. Lecha Wałęsy (GDN)
POMIAR......... Thu Oct 23, 00:00 CEST
TERAZ.......... Thu Oct 23, 00:19 CEST
CZAS........... 19 min temu
WIATR.......... wschodni (E) z prędkością 20 km/h
WIDZIALNOŚĆ.. powyżej 10 kilometrów
CHMURY......... zachmurzenie całkowite (8/8)
TEMPERATURA.... 5°C
T.PUNKTU ROSY.. 5°C
WILGOTNOŚĆ... 100%
T.ODCZUWALNA... 1°C
CIŚNIENIE..... 1015 hPa

Depesza METAR lotniska Poznań-Ławica

METAR = EPPO 222200Z 03011KT 9000 BKN011 10/09 Q1010

STACJA......... EPPO - Poznań-Ławica (POZ)
POMIAR......... Thu Oct 23, 00:00 CEST
TERAZ.......... Thu Oct 23, 00:19 CEST
CZAS........... 19 min temu
WIATR.......... północno północno-wschodni (NNE) z prędkością 20 km/h
WIDZIALNOŚĆ.. 9000 metrów
CHMURY......... zachmurzenie średnie (5/8-7/8)
TEMPERATURA.... 10°C
T.PUNKTU ROSY.. 9°C
WILGOTNOŚĆ... 94%
T.ODCZUWALNA... 7°C
CIŚNIENIE..... 1010 hPa

Depesza METAR lotniska Rzeszów-Jasionka

METAR = EPRZ 222200Z VRB02KT 4000 -RA BR OVC003 08/08 Q1003

STACJA......... EPRZ - Rzeszów-Jasionka (RZE)
POMIAR......... Thu Oct 23, 00:00 CEST
TERAZ.......... Thu Oct 23, 00:19 CEST
CZAS........... 19 min temu
WIATR.......... zmienny z prędkością 4 km/h
WIDZIALNOŚĆ.. 4000 metrów
WARUNKI........ słaby: deszcz  & zamglenie 
CHMURY......... zachmurzenie całkowite (8/8)
TEMPERATURA.... 8°C
T.PUNKTU ROSY.. 8°C
WILGOTNOŚĆ... 100%
CIŚNIENIE..... 1003 hPa

Depesza METAR lotniska Szczecin-Goleniów

METAR = EPSC 222200Z 05006KT 6000 SCT045 11/10 Q1013

STACJA......... EPSC - Szczecin-Goleniów (SZZ)
POMIAR......... Thu Oct 23, 00:00 CEST
TERAZ.......... Thu Oct 23, 00:19 CEST
CZAS........... 19 min temu
WIATR.......... północno-wschodni (NE) z prędkością 11 km/h
WIDZIALNOŚĆ.. 6000 metrów
CHMURY......... zachmurzenie małe (3/8-4/8)
TEMPERATURA.... 11°C
T.PUNKTU ROSY.. 10°C
WILGOTNOŚĆ... 94%
CIŚNIENIE..... 1013 hPa

Depesza METAR lotniska Lublin-Świdnik

METAR = EPLB 170930Z 08006KT 2000 -RA BR FEW006 OVC011 12/11 Q1009

STACJA......... EPLB - Lublin-Świdnik (LUZ)
POMIAR......... Fri Oct 17, 11:30 CEST
TERAZ.......... Thu Oct 23, 00:19 CEST
CZAS........... 132:49 godz temu
WIATR.......... wschodni (E) z prędkością 11 km/h
WIDZIALNOŚĆ.. 2000 metrów
WARUNKI........ słaby: deszcz  & zamglenie 
CHMURY......... zachmurzenie całkowite (8/8)
TEMPERATURA.... 12°C
T.PUNKTU ROSY.. 11°C
WILGOTNOŚĆ... 94%
CIŚNIENIE..... 1009 hPa

Sprawdź też: prognoza pogody dla miast w Polsce!